createdAt,value
2023-04-23T00:02:04.014Z,13.10
2023-04-23T00:04:36.537Z,13.00
2023-04-23T00:07:06.751Z,13.00
2023-04-23T00:09:36.260Z,12.90
2023-04-23T00:12:07.206Z,12.80
2023-04-23T00:14:35.753Z,12.90
2023-04-23T00:17:05.361Z,12.80
2023-04-23T00:19:33.387Z,12.70
2023-04-23T00:22:01.602Z,12.70
2023-04-23T00:24:29.737Z,12.60
2023-04-23T00:26:57.909Z,12.60
2023-04-23T00:29:26.145Z,12.70
2023-04-23T00:31:54.265Z,12.50
2023-04-23T00:34:23.813Z,12.50
2023-04-23T00:36:51.942Z,12.50
2023-04-23T00:39:19.974Z,12.50
2023-04-23T00:41:48.245Z,12.50
2023-04-23T00:44:16.366Z,12.60
2023-04-23T00:46:45.062Z,12.60
2023-04-23T00:49:14.894Z,12.70
2023-04-23T00:51:44.418Z,12.90
2023-04-23T00:54:12.655Z,12.70
2023-04-23T00:56:40.998Z,12.60
2023-04-23T00:59:09.395Z,12.50
2023-04-23T01:01:37.824Z,12.50
2023-04-23T01:04:06.166Z,12.50
2023-04-23T01:06:34.708Z,12.40
2023-04-23T01:09:06.086Z,12.50
2023-04-23T01:11:34.845Z,12.60
2023-04-23T01:14:04.247Z,12.60
2023-04-23T01:16:36.336Z,12.60
2023-04-23T01:19:06.712Z,12.70
2023-04-23T01:21:35.684Z,12.50
2023-04-23T01:24:05.587Z,12.40
2023-04-23T01:26:33.658Z,12.50
2023-04-23T01:29:04.049Z,12.40
2023-04-23T01:31:32.688Z,12.40
2023-04-23T01:34:02.786Z,12.40
2023-04-23T01:36:31.733Z,12.30
2023-04-23T01:38:59.908Z,12.20
2023-04-23T01:41:29.681Z,12.20
2023-04-23T01:43:58.721Z,12.20
2023-04-23T01:46:27.110Z,12.10
2023-04-23T01:48:55.335Z,12.10
2023-04-23T01:51:23.844Z,12.20
2023-04-23T01:53:51.878Z,12.30
2023-04-23T01:56:23.868Z,12.20
2023-04-23T01:58:55.909Z,12.10
2023-04-23T02:01:24.585Z,12.10
2023-04-23T02:03:53.064Z,12.40
2023-04-23T02:06:21.151Z,12.40
2023-04-23T02:08:49.709Z,12.50
2023-04-23T02:11:17.871Z,12.40
2023-04-23T02:13:45.927Z,12.30
2023-04-23T02:16:16.184Z,12.30
2023-04-23T02:18:44.391Z,12.20
2023-04-23T02:21:13.125Z,12.20
2023-04-23T02:23:41.243Z,12.10
2023-04-23T02:26:09.428Z,12.10
2023-04-23T02:28:38.010Z,12.10
2023-04-23T02:31:06.771Z,12.10
2023-04-23T02:33:36.312Z,12.10
2023-04-23T02:36:04.510Z,12.00
2023-04-23T02:38:32.586Z,12.00
2023-04-23T02:41:00.701Z,12.00
2023-04-23T02:43:29.352Z,12.00
2023-04-23T02:45:58.687Z,12.00
2023-04-23T02:48:27.317Z,12.00
2023-04-23T02:50:56.702Z,12.00
2023-04-23T02:53:24.846Z,11.90
2023-04-23T02:55:52.901Z,11.80
2023-04-23T02:58:21.048Z,11.70
2023-04-23T03:00:52.127Z,11.60
2023-04-23T03:03:20.695Z,11.50
2023-04-23T03:05:49.170Z,11.50
2023-04-23T03:08:18.583Z,11.60
2023-04-23T03:10:46.632Z,11.50
2023-04-23T03:13:15.029Z,11.50
2023-04-23T03:15:43.529Z,11.50
2023-04-23T03:18:11.992Z,11.60
2023-04-23T03:20:41.040Z,11.60
2023-04-23T03:23:09.222Z,11.60
2023-04-23T03:25:38.851Z,11.40
2023-04-23T03:28:07.001Z,11.30
2023-04-23T03:30:35.544Z,11.30
2023-04-23T03:33:04.448Z,11.20
2023-04-23T03:35:32.693Z,11.20
2023-04-23T03:38:03.237Z,11.20
2023-04-23T03:40:31.635Z,11.30
2023-04-23T03:43:04.730Z,11.40
2023-04-23T03:45:52.908Z,11.40
2023-04-23T03:48:21.646Z,11.40
2023-04-23T03:50:49.977Z,11.40
2023-04-23T03:53:40.855Z,11.40
2023-04-23T03:56:32.020Z,11.40
2023-04-23T03:59:30.361Z,11.40
2023-04-23T04:02:01.236Z,11.40
2023-04-23T04:04:29.796Z,11.40
2023-04-23T04:06:58.049Z,11.50
2023-04-23T04:09:28.734Z,11.50
2023-04-23T04:12:00.175Z,11.50
2023-04-23T04:14:28.299Z,11.50
2023-04-23T04:16:57.928Z,11.50
2023-04-23T04:19:26.067Z,11.50
2023-04-23T04:21:54.165Z,11.50
2023-04-23T04:24:26.215Z,11.50
2023-04-23T04:26:54.482Z,11.60
2023-04-23T04:29:23.912Z,11.60
2023-04-23T04:31:53.334Z,11.60
2023-04-23T04:34:23.248Z,11.60
2023-04-23T04:36:53.735Z,11.50
2023-04-23T04:39:23.046Z,11.50
2023-04-23T04:41:51.073Z,11.60
2023-04-23T04:44:19.325Z,11.80
2023-04-23T04:46:48.089Z,11.70
2023-04-23T04:49:19.435Z,11.60
2023-04-23T04:51:49.023Z,11.80
2023-04-23T04:54:17.409Z,11.80
2023-04-23T04:56:45.400Z,11.80
2023-04-23T04:59:13.880Z,11.80
2023-04-23T05:01:42.109Z,11.70
2023-04-23T05:04:10.409Z,11.70
2023-04-23T05:06:38.734Z,11.60
2023-04-23T05:09:08.429Z,11.60
2023-04-23T05:11:36.815Z,11.50
2023-04-23T05:14:05.256Z,11.50
2023-04-23T05:16:33.601Z,11.50
2023-04-23T05:19:01.621Z,11.40
2023-04-23T05:21:29.768Z,11.40
2023-04-23T05:23:57.861Z,11.30
2023-04-23T05:26:27.387Z,11.30
2023-04-23T05:28:55.495Z,11.20
2023-04-23T05:31:23.679Z,11.20
2023-04-23T05:33:51.738Z,11.30
2023-04-23T05:36:19.921Z,11.20
2023-04-23T05:38:48.220Z,11.30
2023-04-23T05:41:16.704Z,11.20
2023-04-23T05:43:46.058Z,11.20
2023-04-23T05:46:14.317Z,11.20
2023-04-23T05:48:42.430Z,11.30
2023-04-23T05:51:10.843Z,11.70
2023-04-23T05:53:39.062Z,11.40
2023-04-23T05:56:07.380Z,11.30
2023-04-23T05:58:35.488Z,11.30
2023-04-23T06:01:06.507Z,11.40
2023-04-23T06:03:37.028Z,11.30
2023-04-23T06:06:05.452Z,11.30
2023-04-23T06:08:33.502Z,11.40
2023-04-23T06:11:01.972Z,11.40
2023-04-23T06:13:30.843Z,11.40
2023-04-23T06:15:59.126Z,11.40
2023-04-23T06:18:28.613Z,11.40
2023-04-23T06:20:57.302Z,11.30
2023-04-23T06:23:25.748Z,11.40
2023-04-23T06:25:53.903Z,11.50
2023-04-23T06:28:22.011Z,11.50
2023-04-23T06:31:22.758Z,11.70
2023-04-23T06:33:52.568Z,11.50
2023-04-23T06:36:21.139Z,11.50
2023-04-23T06:38:49.114Z,11.40
2023-04-23T06:41:17.359Z,11.30
2023-04-23T06:43:45.965Z,11.20
2023-04-23T06:46:32.178Z,11.00
2023-04-23T06:49:01.693Z,11.10
2023-04-23T06:51:29.828Z,11.20
2023-04-23T06:53:58.637Z,11.20
2023-04-23T06:56:27.372Z,11.10
2023-04-23T06:58:55.437Z,11.10
2023-04-23T07:01:23.675Z,11.10
2023-04-23T07:03:54.536Z,10.90
2023-04-23T07:06:24.153Z,10.80
2023-04-23T07:08:52.194Z,10.80
2023-04-23T07:11:20.634Z,10.70
2023-04-23T07:13:48.686Z,10.60
2023-04-23T07:16:18.541Z,10.50
2023-04-23T07:18:47.797Z,10.50
2023-04-23T07:21:16.499Z,10.40
2023-04-23T07:23:45.938Z,10.40
2023-04-23T07:26:14.135Z,10.40
2023-04-23T07:28:42.134Z,10.40
2023-04-23T07:31:10.887Z,10.40
2023-04-23T07:33:42.652Z,10.40
2023-04-23T07:36:10.976Z,10.40
2023-04-23T07:38:39.495Z,10.60
2023-04-23T07:41:08.976Z,10.70
2023-04-23T07:43:37.034Z,10.80
2023-04-23T07:46:06.062Z,10.70
2023-04-23T07:48:34.824Z,10.80
2023-04-23T07:51:03.432Z,10.70
2023-04-23T07:53:31.462Z,10.80
2023-04-23T07:55:59.528Z,10.90
2023-04-23T07:58:29.050Z,11.00
2023-04-23T08:00:57.118Z,11.10
2023-04-23T08:03:25.406Z,11.10
2023-04-23T08:05:53.558Z,11.20
2023-04-23T08:08:21.598Z,11.10
2023-04-23T08:10:49.617Z,11.20
2023-04-23T08:13:18.058Z,11.20
2023-04-23T08:15:49.044Z,11.40
2023-04-23T08:18:17.335Z,11.40
2023-04-23T08:20:45.428Z,11.50
2023-04-23T08:23:13.618Z,11.60
2023-04-23T08:25:41.607Z,11.30
2023-04-23T08:28:09.738Z,11.10
2023-04-23T08:30:37.886Z,11.10
2023-04-23T08:33:07.381Z,11.00
2023-04-23T08:35:35.460Z,11.10
2023-04-23T08:38:03.514Z,11.30
2023-04-23T08:40:33.089Z,11.50
2023-04-23T08:43:04.024Z,11.70
2023-04-23T08:45:32.155Z,12.00
2023-04-23T08:48:02.942Z,12.20
2023-04-23T08:50:32.841Z,12.30
2023-04-23T08:53:01.140Z,12.20
2023-04-23T08:55:29.467Z,12.60
2023-04-23T08:58:00.392Z,12.80
2023-04-23T09:00:28.396Z,12.90
2023-04-23T09:02:57.807Z,13.20
2023-04-23T09:05:27.307Z,13.40
2023-04-23T09:08:00.528Z,13.70
2023-04-23T09:10:29.746Z,13.90
2023-04-23T09:12:57.965Z,13.90
2023-04-23T09:15:26.052Z,13.70
2023-04-23T09:17:54.173Z,14.40
2023-04-23T09:20:25.469Z,13.80
2023-04-23T09:22:53.756Z,13.50
2023-04-23T09:25:24.612Z,13.80
2023-04-23T09:27:53.928Z,14.40
2023-04-23T09:30:23.434Z,14.30
2023-04-23T09:32:53.066Z,14.00
2023-04-23T09:35:21.429Z,13.60
2023-04-23T09:37:52.562Z,14.00
2023-04-23T09:40:23.911Z,14.20
2023-04-23T09:42:54.467Z,14.30
2023-04-23T09:45:22.929Z,14.30
2023-04-23T09:47:52.309Z,14.10
2023-04-23T09:50:20.719Z,14.10
2023-04-23T09:52:56.209Z,14.00
2023-04-23T09:55:35.234Z,14.20
2023-04-23T09:58:04.502Z,14.20
2023-04-23T10:00:37.536Z,13.90
2023-04-23T10:03:07.977Z,14.00
2023-04-23T10:05:56.270Z,14.00
2023-04-23T10:08:29.039Z,14.60
2023-04-23T10:11:13.755Z,14.90
2023-04-23T10:13:46.643Z,14.80
2023-04-23T10:16:22.302Z,14.80
2023-04-23T10:18:53.084Z,15.00
2023-04-23T10:21:23.926Z,14.80
2023-04-23T10:23:52.897Z,15.00
2023-04-23T10:26:25.059Z,15.30
2023-04-23T10:28:56.125Z,14.70
2023-04-23T10:31:25.476Z,15.10
2023-04-23T10:33:58.915Z,14.70
2023-04-23T10:36:29.080Z,14.90
2023-04-23T10:39:01.352Z,14.80
2023-04-23T10:41:37.940Z,15.10
2023-04-23T10:44:07.279Z,15.10
2023-04-23T10:46:38.671Z,15.10
2023-04-23T10:49:09.548Z,14.90
2023-04-23T10:54:11.183Z,14.50
2023-04-23T10:56:41.948Z,14.80
2023-04-23T10:59:19.471Z,15.00
2023-04-23T11:01:49.453Z,16.00
2023-04-23T11:04:28.784Z,16.50
2023-04-23T11:06:59.352Z,16.50
2023-04-23T11:09:38.600Z,16.70
2023-04-23T11:12:13.905Z,16.70
2023-04-23T11:14:48.268Z,16.60
2023-04-23T11:17:18.290Z,16.60
2023-04-23T11:20:11.645Z,16.80
2023-04-23T11:22:41.249Z,17.10
2023-04-23T11:25:11.475Z,17.70
2023-04-23T11:27:42.588Z,17.30
2023-04-23T11:30:17.562Z,17.70
2023-04-23T11:32:49.411Z,17.80
2023-04-23T11:35:19.477Z,18.40
2023-04-23T11:37:49.266Z,18.30
2023-04-23T11:40:22.407Z,17.70
2023-04-23T11:42:54.733Z,18.70
2023-04-23T11:45:24.858Z,18.70
2023-04-23T11:47:55.984Z,18.90
2023-04-23T11:50:25.881Z,18.70
2023-04-23T11:52:54.538Z,18.30
2023-04-23T11:55:23.486Z,18.20
2023-04-23T11:57:53.779Z,18.00
2023-04-23T12:00:24.451Z,17.80
2023-04-23T12:02:53.904Z,17.30
2023-04-23T12:05:23.566Z,17.70
2023-04-23T12:07:52.924Z,17.80
2023-04-23T12:10:22.469Z,17.70
2023-04-23T12:12:53.443Z,17.20
2023-04-23T12:15:22.003Z,17.70
2023-04-23T12:17:51.254Z,18.00
2023-04-23T12:20:23.508Z,18.20
2023-04-23T12:22:51.847Z,18.60
2023-04-23T12:25:24.030Z,18.30
2023-04-23T12:27:53.489Z,19.20
2023-04-23T12:30:21.983Z,19.30
2023-04-23T12:32:50.095Z,19.10
2023-04-23T12:35:18.305Z,18.80
2023-04-23T12:37:46.627Z,19.20
2023-04-23T12:40:14.826Z,19.00
2023-04-23T12:42:43.036Z,19.90
2023-04-23T12:45:12.810Z,20.20
2023-04-23T12:47:41.107Z,22.10
2023-04-23T12:50:09.945Z,21.90
2023-04-23T12:52:38.266Z,21.10
2023-04-23T12:55:06.843Z,20.10
2023-04-23T12:57:34.941Z,20.10
2023-04-23T13:00:03.614Z,20.10
2023-04-23T13:02:33.341Z,19.00
2023-04-23T13:05:01.800Z,18.90
2023-04-23T13:07:30.045Z,19.60
2023-04-23T13:09:59.589Z,19.60
2023-04-23T13:12:27.882Z,19.20
2023-04-23T13:14:55.992Z,19.50
2023-04-23T13:17:26.268Z,19.90
2023-04-23T13:19:57.103Z,20.10
2023-04-23T13:22:28.719Z,19.40
2023-04-23T13:24:57.975Z,19.50
2023-04-23T13:27:27.402Z,18.30
2023-04-23T13:29:55.848Z,19.10
2023-04-23T13:32:27.082Z,19.60
2023-04-23T13:34:56.666Z,19.30
2023-04-23T13:37:26.456Z,19.50
2023-04-23T13:39:54.583Z,19.20
2023-04-23T13:42:22.726Z,19.00
2023-04-23T13:44:50.769Z,18.70
2023-04-23T13:47:18.905Z,18.60
2023-04-23T13:49:47.009Z,18.70
2023-04-23T13:52:16.565Z,18.90
2023-04-23T13:54:47.675Z,19.40
2023-04-23T13:57:16.112Z,19.60
2023-04-23T13:59:44.229Z,19.70
2023-04-23T14:02:12.698Z,19.50
2023-04-23T14:04:43.807Z,19.30
2023-04-23T14:07:11.871Z,19.30
2023-04-23T14:09:41.487Z,18.80
2023-04-23T14:12:10.454Z,19.00
2023-04-23T14:14:39.420Z,19.00
2023-04-23T14:17:07.468Z,19.40
2023-04-23T14:19:37.505Z,18.90
2023-04-23T14:22:06.177Z,18.90
2023-04-23T14:24:36.065Z,18.80
2023-04-23T14:27:05.995Z,18.50
2023-04-23T14:29:41.521Z,18.90
2023-04-23T14:32:09.809Z,18.90
2023-04-23T14:34:37.942Z,18.90
2023-04-23T14:37:06.138Z,19.00
2023-04-23T14:39:35.386Z,19.00
2023-04-23T14:42:05.157Z,19.00
2023-04-23T14:44:33.260Z,18.70
2023-04-23T14:47:01.339Z,18.60
2023-04-23T14:49:29.564Z,18.60
2023-04-23T14:51:58.699Z,18.50
2023-04-23T14:54:26.803Z,18.60
2023-04-23T14:56:54.851Z,17.90
2023-04-23T14:59:25.046Z,18.30
2023-04-23T15:01:53.280Z,18.40
2023-04-23T15:04:21.831Z,18.50
2023-04-23T15:06:50.295Z,18.60
2023-04-23T15:09:18.772Z,18.60
2023-04-23T15:11:46.917Z,18.30
2023-04-23T15:14:25.580Z,18.30
2023-04-23T15:16:55.052Z,18.30
2023-04-23T15:19:32.882Z,18.20
2023-04-23T15:22:00.912Z,18.00
2023-04-23T15:24:29.125Z,17.90
2023-04-23T15:26:59.271Z,17.90
2023-04-23T15:29:27.570Z,17.80
2023-04-23T15:31:58.127Z,17.60
2023-04-23T15:34:26.634Z,17.70
2023-04-23T15:36:56.132Z,17.50
2023-04-23T15:39:24.186Z,17.30
2023-04-23T15:41:53.718Z,17.40
2023-04-23T15:44:24.361Z,17.70
2023-04-23T15:46:52.531Z,17.50
2023-04-23T15:49:20.653Z,16.90
2023-04-23T15:51:48.825Z,16.90
2023-04-23T15:54:20.585Z,16.70
2023-04-23T15:56:48.943Z,17.00
2023-04-23T15:59:19.608Z,17.60
2023-04-23T16:01:50.655Z,17.30
2023-04-23T16:04:18.963Z,17.40
2023-04-23T16:06:47.848Z,17.30
2023-04-23T16:09:19.487Z,17.90
2023-04-23T16:11:52.685Z,18.20
2023-04-23T16:14:20.876Z,18.20
2023-04-23T16:16:49.323Z,18.20
2023-04-23T16:19:18.045Z,18.10
2023-04-23T16:21:46.062Z,19.30
2023-04-23T16:24:14.150Z,19.70
2023-04-23T16:26:42.355Z,19.70
2023-04-23T16:31:45.324Z,20.50
2023-04-23T16:34:13.514Z,20.50
2023-04-23T16:36:41.760Z,19.60
2023-04-23T16:39:11.281Z,19.40
2023-04-23T16:41:39.813Z,19.30
2023-04-23T16:44:08.012Z,19.00
2023-04-23T16:46:37.944Z,18.70
2023-04-23T16:49:06.338Z,18.40
2023-04-23T16:51:34.542Z,18.00
2023-04-23T16:54:02.558Z,17.30
2023-04-23T16:56:30.934Z,16.80
2023-04-23T16:58:59.522Z,16.30
2023-04-23T17:01:27.601Z,16.60
2023-04-23T17:03:57.287Z,16.40
2023-04-23T17:06:28.076Z,16.60
2023-04-23T17:08:58.279Z,16.30
2023-04-23T17:11:26.904Z,16.20
2023-04-23T17:13:55.862Z,16.20
2023-04-23T17:16:29.203Z,16.00
2023-04-23T17:18:59.441Z,15.90
2023-04-23T17:21:27.604Z,15.60
2023-04-23T17:23:55.778Z,15.50
2023-04-23T17:26:24.059Z,15.80
2023-04-23T17:28:52.358Z,15.40
2023-04-23T17:31:20.982Z,15.30
2023-04-23T17:33:50.215Z,15.20
2023-04-23T17:36:20.047Z,15.70
2023-04-23T17:38:48.169Z,16.00
2023-04-23T17:41:19.056Z,15.40
2023-04-23T17:43:47.140Z,15.60
2023-04-23T17:46:15.298Z,15.60
2023-04-23T17:48:43.324Z,15.40
2023-04-23T17:51:11.510Z,15.10
2023-04-23T17:53:42.180Z,14.70
2023-04-23T17:56:10.886Z,14.60
2023-04-23T17:58:39.322Z,14.50
2023-04-23T18:01:08.949Z,14.50
2023-04-23T18:03:37.332Z,14.40
2023-04-23T18:06:06.176Z,14.40
2023-04-23T18:08:34.898Z,14.60
2023-04-23T18:11:05.665Z,14.30
2023-04-23T18:13:34.290Z,14.10
2023-04-23T18:16:02.335Z,14.10
2023-04-23T18:18:30.548Z,13.90
2023-04-23T18:20:58.877Z,13.80
2023-04-23T18:23:27.108Z,13.80
2023-04-23T18:25:56.620Z,13.70
2023-04-23T18:28:26.244Z,13.60
2023-04-23T18:30:56.466Z,13.50
2023-04-23T18:33:32.847Z,13.50
2023-04-23T18:36:05.912Z,13.60
2023-04-23T18:38:40.450Z,13.60
2023-04-23T18:41:15.048Z,13.50
2023-04-23T18:43:45.630Z,13.50
2023-04-23T18:46:14.083Z,13.40
2023-04-23T18:48:47.671Z,13.20
2023-04-23T18:51:22.956Z,13.20
2023-04-23T18:53:51.350Z,13.10
2023-04-23T18:56:19.481Z,13.10
2023-04-23T18:58:48.921Z,13.20
2023-04-23T19:01:17.308Z,13.30
2023-04-23T19:03:45.617Z,13.70
2023-04-23T19:06:13.992Z,13.60
2023-04-23T19:08:42.497Z,14.30
2023-04-23T19:11:10.907Z,13.70
2023-04-23T19:13:41.926Z,13.20
2023-04-23T19:16:11.717Z,12.60
2023-04-23T19:18:40.052Z,12.90
2023-04-23T19:21:08.213Z,13.20
2023-04-23T19:23:36.298Z,12.70
2023-04-23T19:26:05.614Z,11.70
2023-04-23T19:28:34.332Z,11.20
2023-04-23T19:31:03.722Z,11.00
2023-04-23T19:33:35.440Z,10.80
2023-04-23T19:36:03.467Z,10.80
2023-04-23T19:38:32.992Z,10.70
2023-04-23T19:41:01.458Z,10.70
2023-04-23T19:43:29.535Z,10.60
2023-04-23T19:45:57.683Z,10.50
2023-04-23T19:48:26.017Z,10.40
2023-04-23T19:50:55.539Z,10.40
2023-04-23T19:53:24.391Z,10.40
2023-04-23T19:55:52.476Z,10.30
2023-04-23T19:58:23.244Z,10.30
2023-04-23T20:00:52.222Z,10.30
2023-04-23T20:03:21.002Z,10.30
2023-04-23T20:05:49.775Z,10.30
2023-04-23T20:08:29.402Z,10.20
2023-04-23T20:10:59.205Z,10.30
2023-04-23T20:13:27.324Z,10.20
2023-04-23T20:15:55.793Z,10.20
2023-04-23T20:18:25.528Z,10.20
2023-04-23T20:20:54.104Z,10.20
2023-04-23T20:23:23.579Z,10.10
2023-04-23T20:25:51.600Z,10.10
2023-04-23T20:28:19.875Z,10.00
2023-04-23T20:30:47.874Z,10.00
2023-04-23T20:33:18.804Z,9.90
2023-04-23T20:35:47.824Z,9.90
2023-04-23T20:38:20.418Z,10.00
2023-04-23T20:40:50.155Z,10.00
2023-04-23T20:43:18.505Z,9.90
2023-04-23T20:45:46.915Z,10.00
2023-04-23T20:48:15.388Z,9.90
2023-04-23T20:50:43.440Z,10.00
2023-04-23T20:53:11.517Z,10.00
2023-04-23T20:55:39.865Z,9.80
2023-04-23T20:58:09.349Z,9.90
2023-04-23T21:00:38.102Z,9.80
2023-04-23T21:03:06.916Z,9.70
2023-04-23T21:05:35.346Z,9.70
2023-04-23T21:08:03.418Z,9.60
2023-04-23T21:10:31.814Z,9.60
2023-04-23T21:13:00.486Z,9.60
2023-04-23T21:15:34.077Z,9.60
2023-04-23T21:18:02.577Z,9.60
2023-04-23T21:20:31.234Z,9.60
2023-04-23T21:22:59.327Z,9.60
2023-04-23T21:25:27.533Z,9.70
2023-04-23T21:27:56.302Z,9.60
2023-04-23T21:30:31.052Z,9.60
2023-04-23T21:33:00.520Z,9.60
2023-04-23T21:35:28.576Z,9.70
2023-04-23T21:37:56.631Z,9.60
2023-04-23T21:40:24.808Z,9.60
2023-04-23T21:42:52.898Z,9.60
2023-04-23T21:45:21.174Z,9.70
2023-04-23T21:47:49.414Z,9.70
2023-04-23T21:50:19.182Z,9.70
2023-04-23T21:52:47.364Z,9.70
2023-04-23T21:55:15.426Z,9.70
2023-04-23T21:57:43.505Z,9.70
2023-04-23T22:00:13.980Z,9.70
2023-04-23T22:02:46.341Z,9.70
2023-04-23T22:05:17.000Z,9.70
2023-04-23T22:07:46.934Z,9.70
2023-04-23T22:10:17.334Z,9.70
2023-04-23T22:12:46.483Z,9.70
2023-04-23T22:15:17.274Z,9.70
2023-04-23T22:17:48.377Z,9.70
2023-04-23T22:20:16.846Z,9.70
2023-04-23T22:22:46.369Z,9.90
2023-04-23T22:25:16.315Z,9.80
2023-04-23T22:27:44.512Z,9.90
2023-04-23T22:30:13.054Z,9.90
2023-04-23T22:32:41.581Z,10.10
2023-04-23T22:35:10.598Z,10.20
2023-04-23T22:37:39.466Z,10.10
2023-04-23T22:40:10.478Z,10.00
2023-04-23T22:42:38.750Z,10.00
2023-04-23T22:45:08.326Z,9.90
2023-04-23T22:47:37.029Z,10.00
2023-04-23T22:50:05.569Z,10.10
2023-04-23T22:52:33.748Z,10.10
2023-04-23T22:55:02.083Z,10.20
2023-04-23T22:57:31.710Z,10.30
2023-04-23T22:59:59.841Z,10.40
2023-04-23T23:02:28.055Z,10.40
2023-04-23T23:04:56.129Z,10.40
2023-04-23T23:07:24.466Z,10.30
2023-04-23T23:09:52.484Z,10.50
2023-04-23T23:12:20.583Z,10.30
2023-04-23T23:14:49.915Z,10.30
2023-04-23T23:17:18.051Z,10.40
2023-04-23T23:19:46.092Z,10.40
2023-04-23T23:22:14.174Z,10.40
2023-04-23T23:24:42.300Z,10.40
2023-04-23T23:27:10.362Z,10.40
2023-04-23T23:29:38.433Z,10.30
2023-04-23T23:32:07.952Z,10.30
2023-04-23T23:34:36.249Z,10.30
2023-04-23T23:37:04.650Z,10.20
2023-04-23T23:39:32.673Z,10.20
2023-04-23T23:42:01.879Z,10.20
2023-04-23T23:44:29.967Z,10.10
2023-04-23T23:46:58.174Z,10.00
2023-04-23T23:49:27.672Z,9.90
2023-04-23T23:51:55.731Z,9.80
2023-04-23T23:54:23.779Z,9.70
2023-04-23T23:56:51.867Z,9.60
2023-04-23T23:59:20.064Z,9.60
